Time;durP1;ratioP1;P1;durP2;ratioP2;P2;SDS_P1;SDS_P2;PMS_P1;PMS_P2;Temp;Humidity;BMP_temperature;BMP_pressure;BME280_temperature;BME280_humidity;BME280_pressure;Samples;Min_cycle;Max_cycle;Signal;HPM_P1;HPM_P2
2021/10/15 00:00:46;;;;;;;29.10;13.37;;;3.50;99.90;;;;;;4174358;28;20270;-58
2021/10/15 00:02:48;;;;;;;24.93;13.93;;;3.50;99.90;;;;;;4175782;28;22275;-60
2021/10/15 00:04:49;;;;;;;23.93;13.87;;;3.40;99.90;;;;;;4175383;28;20312;-59
2021/10/15 00:06:50;;;;;;;23.87;13.23;;;3.40;99.90;;;;;;4175076;28;20356;-59
2021/10/15 00:08:51;;;;;;;25.37;13.63;;;3.40;99.90;;;;;;4175407;28;20323;-60
2021/10/15 00:10:52;;;;;;;25.17;12.40;;;3.40;99.90;;;;;;4174846;28;20251;-57
2021/10/15 00:12:53;;;;;;;25.73;12.97;;;3.40;99.90;;;;;;4174281;28;20274;-58
2021/10/15 00:14:54;;;;;;;23.27;12.70;;;3.40;99.90;;;;;;4174760;28;20308;-59
2021/10/15 00:16:55;;;;;;;21.67;12.73;;;3.40;99.90;;;;;;4175538;28;20339;-61
2021/10/15 00:18:57;;;;;;;24.13;13.70;;;3.40;99.90;;;;;;4174910;28;20278;-59
2021/10/15 00:20:58;;;;;;;22.40;12.77;;;3.40;99.90;;;;;;4176021;28;20817;-58
2021/10/15 00:22:59;;;;;;;24.63;12.73;;;3.40;99.90;;;;;;4174540;28;20742;-61
2021/10/15 00:25:00;;;;;;;19.13;11.67;;;3.40;99.90;;;;;;4174524;28;20323;-61
2021/10/15 00:27:01;;;;;;;22.07;12.90;;;3.30;99.90;;;;;;4173608;28;20298;-58
2021/10/15 00:29:05;;;;;;;19.90;12.33;;;3.20;99.90;;;;;;4175620;28;20293;-61
2021/10/15 00:31:06;;;;;;;21.07;11.47;;;3.20;99.90;;;;;;4174517;28;20726;-56
2021/10/15 00:33:07;;;;;;;19.47;11.40;;;3.10;99.90;;;;;;4175237;28;20292;-60
2021/10/15 00:35:08;;;;;;;18.77;11.43;;;3.10;99.90;;;;;;4174525;28;20274;-60
2021/10/15 00:37:10;;;;;;;20.90;11.23;;;3.10;99.90;;;;;;4174515;28;20269;-58
2021/10/15 00:39:11;;;;;;;17.63;10.83;;;3.10;99.90;;;;;;4175456;28;20265;-62
2021/10/15 00:41:12;;;;;;;22.73;11.67;;;3.00;99.90;;;;;;4173580;28;20281;-59
2021/10/15 00:43:14;;;;;;;22.70;12.83;;;3.00;99.90;;;;;;4175189;28;20336;-58
2021/10/15 00:45:15;;;;;;;19.20;11.47;;;2.90;99.90;;;;;;4173941;28;20300;-59
2021/10/15 00:47:16;;;;;;;21.50;12.43;;;2.90;99.90;;;;;;4175569;28;20286;-55
2021/10/15 00:49:18;;;;;;;21.77;12.63;;;2.70;99.90;;;;;;4174092;28;20789;-59
2021/10/15 00:51:20;;;;;;;30.27;16.07;;;2.60;99.90;;;;;;4176191;28;20274;-59
2021/10/15 00:53:21;;;;;;;24.10;14.43;;;2.60;99.90;;;;;;4173528;28;20350;-58
2021/10/15 00:55:23;;;;;;;25.03;13.23;;;2.60;99.90;;;;;;4174131;28;20685;-59
2021/10/15 00:57:24;;;;;;;25.80;13.83;;;2.50;99.90;;;;;;4173836;28;20825;-60
2021/10/15 00:59:25;;;;;;;27.13;15.07;;;2.50;99.90;;;;;;4174970;28;20266;-60
2021/10/15 01:01:26;;;;;;;26.23;14.77;;;2.50;99.90;;;;;;4174276;28;20270;-55
2021/10/15 01:03:28;;;;;;;22.50;13.40;;;2.50;99.90;;;;;;4174164;28;20290;-58
2021/10/15 01:05:29;;;;;;;19.47;11.57;;;2.50;99.90;;;;;;4174633;28;20262;-60
2021/10/15 01:07:31;;;;;;;21.60;12.27;;;2.50;99.90;;;;;;4174105;28;20293;-60
2021/10/15 01:09:32;;;;;;;23.80;12.57;;;2.50;99.90;;;;;;4174035;28;20262;-58
2021/10/15 01:11:34;;;;;;;21.57;11.73;;;2.60;99.90;;;;;;4174262;28;21177;-60
2021/10/15 01:13:35;;;;;;;20.20;11.83;;;2.60;99.90;;;;;;4175227;28;20267;-59
2021/10/15 01:15:36;;;;;;;21.23;10.77;;;2.50;99.90;;;;;;4174026;28;20274;-58
2021/10/15 01:17:38;;;;;;;19.37;11.20;;;2.40;99.90;;;;;;4175178;28;20730;-60
2021/10/15 01:19:39;;;;;;;20.40;10.40;;;2.40;99.90;;;;;;4154550;28;20271;-60
2021/10/15 01:21:40;;;;;;;21.17;11.93;;;2.40;99.90;;;;;;4175095;28;20335;-60
2021/10/15 01:23:41;;;;;;;20.50;11.70;;;2.30;99.90;;;;;;4173631;28;20274;-58
2021/10/15 01:25:43;;;;;;;21.23;11.67;;;2.30;99.90;;;;;;4174800;28;20266;-57
2021/10/15 01:27:44;;;;;;;20.10;11.30;;;2.30;99.90;;;;;;4173726;28;21062;-57
2021/10/15 01:29:45;;;;;;;20.93;12.27;;;2.40;99.90;;;;;;4174018;28;21264;-59
2021/10/15 01:31:46;;;;;;;21.47;11.80;;;2.30;99.90;;;;;;4172054;28;20720;-60
2021/10/15 01:33:47;;;;;;;25.97;12.80;;;2.20;99.90;;;;;;4173812;28;20812;-58
2021/10/15 01:35:48;;;;;;;19.70;11.40;;;2.20;99.90;;;;;;4173295;28;20278;-59
2021/10/15 01:37:49;;;;;;;23.63;12.57;;;2.20;99.90;;;;;;4173155;28;20282;-57
2021/10/15 01:39:50;;;;;;;18.70;11.17;;;2.20;99.90;;;;;;4174013;28;20306;-58
2021/10/15 01:41:52;;;;;;;22.70;12.27;;;2.20;99.90;;;;;;4172764;28;20278;-59
2021/10/15 01:43:53;;;;;;;19.70;11.77;;;2.20;99.90;;;;;;4174534;28;20327;-61
2021/10/15 01:45:55;;;;;;;23.80;12.50;;;2.20;99.90;;;;;;4173035;28;20712;-61
2021/10/15 01:47:57;;;;;;;21.23;11.57;;;2.20;99.90;;;;;;4174518;28;20300;-60
2021/10/15 01:49:58;;;;;;;21.50;12.53;;;2.10;99.90;;;;;;4173198;28;20308;-59
2021/10/15 01:51:59;;;;;;;24.70;13.30;;;2.00;99.90;;;;;;4175322;28;20266;-58
2021/10/15 01:54:01;;;;;;;21.33;11.30;;;2.00;99.90;;;;;;4173634;28;20339;-60
2021/10/15 01:56:02;;;;;;;19.53;11.53;;;2.00;99.90;;;;;;4174190;28;20343;-60
2021/10/15 01:58:03;;;;;;;21.87;11.07;;;2.10;99.90;;;;;;4172628;28;20274;-60
2021/10/15 02:00:07;;;;;;;21.37;11.07;;;2.00;99.90;;;;;;4174133;28;20481;-60
2021/10/15 02:02:08;;;;;;;18.57;10.97;;;2.00;99.90;;;;;;4173263;28;20285;-59
2021/10/15 02:04:09;;;;;;;23.60;11.17;;;2.10;99.90;;;;;;4174121;28;21101;-60
2021/10/15 02:06:10;;;;;;;22.47;11.63;;;2.10;99.90;;;;;;4172269;28;20348;-59
2021/10/15 02:08:11;;;;;;;18.90;10.77;;;2.10;99.90;;;;;;4173891;28;20269;-60
2021/10/15 02:10:14;;;;;;;26.07;12.03;;;2.10;99.90;;;;;;4173399;28;20316;-59
2021/10/15 02:12:16;;;;;;;22.00;11.57;;;2.20;99.90;;;;;;4173728;28;20266;-58
2021/10/15 02:14:17;;;;;;;25.50;12.00;;;2.10;99.90;;;;;;4173527;28;20324;-60
2021/10/15 02:16:18;;;;;;;24.80;12.87;;;2.00;99.90;;;;;;4172389;28;20278;-59
2021/10/15 02:18:20;;;;;;;21.10;12.67;;;1.90;99.90;;;;;;4173361;28;20289;-61
2021/10/15 02:20:21;;;;;;;22.67;12.07;;;1.80;99.90;;;;;;4172888;28;20282;-57
2021/10/15 02:22:22;;;;;;;18.67;10.63;;;1.80;99.90;;;;;;4172170;28;20685;-60
2021/10/15 02:24:24;;;;;;;21.00;11.43;;;1.80;99.90;;;;;;4172246;28;20316;-59
2021/10/15 02:26:25;;;;;;;20.27;11.20;;;1.50;99.90;;;;;;4173539;28;20785;-61
2021/10/15 02:28:26;;;;;;;19.20;11.27;;;1.40;99.90;;;;;;4172513;28;20754;-60
2021/10/15 02:30:28;;;;;;;21.53;11.17;;;1.40;99.90;;;;;;4174287;28;20323;-61
2021/10/15 02:32:31;;;;;;;20.70;11.40;;;1.40;99.90;;;;;;4172351;28;20829;-59
2021/10/15 02:34:32;;;;;;;25.53;11.73;;;1.50;99.90;;;;;;4169608;28;20289;-59
2021/10/15 02:36:33;;;;;;;21.80;11.33;;;1.50;99.90;;;;;;4171968;28;20332;-59
2021/10/15 02:38:34;;;;;;;19.20;11.90;;;1.40;99.90;;;;;;4173280;28;21037;-61
2021/10/15 02:40:35;;;;;;;26.57;13.10;;;1.30;99.90;;;;;;4172701;28;20258;-58
2021/10/15 02:42:37;;;;;;;26.37;13.40;;;1.20;99.90;;;;;;4173304;28;21207;-60
2021/10/15 02:44:38;;;;;;;27.70;14.10;;;1.10;99.90;;;;;;4173703;28;20323;-61
2021/10/15 02:46:40;;;;;;;30.67;13.90;;;1.00;99.90;;;;;;4172075;28;20790;-60
2021/10/15 02:48:42;;;;;;;30.03;14.10;;;0.80;99.90;;;;;;4174351;28;20808;-59
2021/10/15 02:50:43;;;;;;;41.03;14.07;;;0.70;99.90;;;;;;4171847;28;20281;-61
2021/10/15 02:52:44;;;;;;;29.37;14.63;;;0.60;99.90;;;;;;4173977;28;20278;-59
2021/10/15 02:54:46;;;;;;;26.23;12.33;;;0.60;99.90;;;;;;4154224;28;21028;-59
2021/10/15 02:56:47;;;;;;;24.97;13.53;;;0.60;99.90;;;;;;4174270;28;21077;-60
2021/10/15 02:58:48;;;;;;;27.47;14.17;;;0.60;99.90;;;;;;4171564;28;20291;-60
2021/10/15 03:00:50;;;;;;;23.10;12.93;;;0.70;99.90;;;;;;4173314;28;20765;-61
2021/10/15 03:02:51;;;;;;;24.53;11.87;;;0.80;99.90;;;;;;4172618;28;20808;-59
2021/10/15 03:04:52;;;;;;;23.13;12.97;;;0.80;99.90;;;;;;4173464;28;20347;-61
2021/10/15 03:06:53;;;;;;;27.87;12.83;;;0.90;99.90;;;;;;4172136;28;20305;-58
2021/10/15 03:08:54;;;;;;;26.67;14.13;;;1.00;99.90;;;;;;4173336;28;20304;-61
2021/10/15 03:10:55;;;;;;;27.00;12.47;;;1.10;99.90;;;;;;4173255;28;21107;-59
2021/10/15 03:12:56;;;;;;;27.57;13.30;;;1.20;99.90;;;;;;4172629;28;20746;-59
2021/10/15 03:14:58;;;;;;;27.73;14.53;;;1.30;99.90;;;;;;4172940;28;20274;-56
2021/10/15 03:16:59;;;;;;;23.43;13.17;;;1.30;99.90;;;;;;4171854;28;21120;-58
2021/10/15 03:19:00;;;;;;;22.63;12.63;;;1.30;99.90;;;;;;4176527;28;20250;-61
2021/10/15 03:21:01;;;;;;;24.97;13.53;;;1.40;99.90;;;;;;4174355;28;20886;-58
2021/10/15 03:23:03;;;;;;;25.77;12.53;;;1.30;99.90;;;;;;4175711;28;20274;-59
2021/10/15 03:25:05;;;;;;;21.87;13.13;;;1.30;99.90;;;;;;4175162;28;20326;-59
2021/10/15 03:27:06;;;;;;;37.47;14.17;;;1.30;99.90;;;;;;4175580;28;20411;-56
2021/10/15 03:29:07;;;;;;;24.10;13.60;;;1.30;99.90;;;;;;4175684;28;20327;-60
2021/10/15 03:31:08;;;;;;;29.37;15.40;;;1.30;99.90;;;;;;4177174;28;20338;-59
2021/10/15 03:33:09;;;;;;;60.47;18.23;;;1.20;99.90;;;;;;4175913;28;20311;-60
2021/10/15 03:35:11;;;;;;;52.47;17.77;;;1.10;99.90;;;;;;4192221;28;20607;-60
2021/10/15 03:37:12;;;;;;;137.50;22.17;;;1.10;99.90;;;;;;4174943;28;20250;-60
2021/10/15 03:39:14;;;;;;;68.60;17.73;;;1.00;99.90;;;;;;4175743;28;20323;-60
2021/10/15 03:41:15;;;;;;;137.97;19.43;;;0.90;99.90;;;;;;4175510;28;20317;-59
2021/10/15 03:43:16;;;;;;;40.53;19.00;;;0.90;99.90;;;;;;4174795;28;20347;-58
2021/10/15 03:45:17;;;;;;;45.17;18.03;;;0.70;99.90;;;;;;4177142;28;21224;-60
2021/10/15 03:47:18;;;;;;;48.00;18.73;;;0.80;99.90;;;;;;4176362;28;20293;-57
2021/10/15 03:49:20;;;;;;;72.20;18.00;;;0.80;99.90;;;;;;4175833;28;20677;-59
2021/10/15 03:51:21;;;;;;;72.10;21.03;;;0.80;99.90;;;;;;4175042;28;20665;-57
2021/10/15 03:53:22;;;;;;;75.37;21.27;;;0.80;99.90;;;;;;4176471;28;20266;-59
2021/10/15 03:55:24;;;;;;;199.97;25.80;;;0.70;99.90;;;;;;4174874;28;20258;-58
2021/10/15 03:57:25;;;;;;;91.03;21.57;;;0.70;99.90;;;;;;4176212;28;20254;-61
2021/10/15 03:59:26;;;;;;;119.17;25.27;;;0.60;99.90;;;;;;4174839;28;20328;-59
2021/10/15 04:01:27;;;;;;;130.73;24.60;;;0.60;99.90;;;;;;4158945;28;20340;-58
2021/10/15 04:03:29;;;;;;;198.73;27.23;;;0.60;99.90;;;;;;4174729;28;20656;-58
2021/10/15 04:05:30;;;;;;;209.07;26.93;;;0.60;99.90;;;;;;4175363;28;20282;-56
2021/10/15 04:07:31;;;;;;;116.40;25.93;;;0.50;99.90;;;;;;4174931;28;20306;-61
2021/10/15 04:09:32;;;;;;;67.63;23.00;;;0.50;99.90;;;;;;4175546;28;21144;-58
2021/10/15 04:11:33;;;;;;;149.73;27.27;;;0.50;99.90;;;;;;4174294;28;20250;-59
2021/10/15 04:13:34;;;;;;;135.03;25.53;;;0.50;99.90;;;;;;4174529;28;20270;-54
2021/10/15 04:15:35;;;;;;;156.03;26.37;;;0.50;99.90;;;;;;4173003;28;20270;-57
2021/10/15 04:17:37;;;;;;;115.47;23.93;;;0.50;99.90;;;;;;4174007;28;20294;-59
2021/10/15 04:19:38;;;;;;;64.80;22.93;;;0.50;99.90;;;;;;4174967;28;20404;-58
2021/10/15 04:21:39;;;;;;;132.37;25.80;;;0.50;99.90;;;;;;4173839;28;21194;-60
2021/10/15 04:23:40;;;;;;;150.77;24.30;;;0.50;99.90;;;;;;4175472;28;20312;-57
2021/10/15 04:25:41;;;;;;;108.27;22.77;;;0.60;99.90;;;;;;4173905;28;20282;-58
2021/10/15 04:27:43;;;;;;;121.57;23.07;;;0.60;99.90;;;;;;4174599;28;20317;-58
2021/10/15 04:29:44;;;;;;;143.00;23.90;;;0.60;99.90;;;;;;4152284;28;20356;-58
2021/10/15 04:31:45;;;;;;;179.93;26.43;;;0.60;99.90;;;;;;4168821;28;20274;-57
2021/10/15 04:33:46;;;;;;;108.10;22.53;;;0.50;99.90;;;;;;4172263;28;20291;-57
2021/10/15 04:35:47;;;;;;;101.47;21.77;;;0.50;99.90;;;;;;4173235;28;20270;-57
2021/10/15 04:37:48;;;;;;;105.77;23.30;;;0.60;99.90;;;;;;4172061;28;20685;-59
2021/10/15 04:39:49;;;;;;;101.63;22.20;;;0.60;99.90;;;;;;4172079;28;20383;-58
2021/10/15 04:41:50;;;;;;;111.87;20.57;;;0.70;99.90;;;;;;4173528;28;20996;-59
2021/10/15 04:43:52;;;;;;;150.87;25.07;;;0.80;99.90;;;;;;4173891;28;20312;-61
2021/10/15 04:45:53;;;;;;;118.17;21.17;;;0.80;99.90;;;;;;4175553;28;20274;-57
2021/10/15 04:47:54;;;;;;;175.93;22.43;;;0.80;99.90;;;;;;4173586;28;20356;-53
2021/10/15 04:49:55;;;;;;;183.87;22.07;;;0.80;99.90;;;;;;4175217;28;20323;-61
2021/10/15 04:51:57;;;;;;;226.00;21.07;;;0.80;99.90;;;;;;4174344;28;20266;-54
2021/10/15 04:53:58;;;;;;;122.20;19.40;;;0.80;99.90;;;;;;4175051;28;20270;-54
2021/10/15 04:55:59;;;;;;;123.07;20.57;;;0.80;99.90;;;;;;4173934;28;20266;-58
2021/10/15 04:58:00;;;;;;;108.53;23.23;;;0.80;99.90;;;;;;4175035;28;20270;-58
2021/10/15 05:00:02;;;;;;;152.50;24.90;;;0.80;99.90;;;;;;4173706;28;20751;-57
2021/10/15 05:02:04;;;;;;;100.37;22.63;;;0.90;99.90;;;;;;4174858;28;20596;-60
2021/10/15 05:04:05;;;;;;;110.50;22.33;;;0.90;99.90;;;;;;4173545;28;20331;-58
2021/10/15 05:06:06;;;;;;;93.37;22.93;;;0.80;99.90;;;;;;4174796;28;20665;-57
2021/10/15 05:08:10;;;;;;;109.00;23.43;;;0.90;99.90;;;;;;4173567;28;20286;-57
2021/10/15 05:10:11;;;;;;;79.53;21.70;;;0.80;99.90;;;;;;4173918;28;20344;-56
2021/10/15 05:12:15;;;;;;;80.30;24.17;;;0.90;99.90;;;;;;4174184;28;20711;-59
2021/10/15 05:14:16;;;;;;;87.47;24.93;;;1.00;99.90;;;;;;4173721;28;20258;-52
2021/10/15 05:16:18;;;;;;;106.67;26.43;;;1.00;99.90;;;;;;4173818;28;20254;-59
2021/10/15 05:18:19;;;;;;;69.40;25.43;;;1.00;99.90;;;;;;4173379;28;20724;-56
2021/10/15 05:20:21;;;;;;;69.83;21.67;;;1.10;99.90;;;;;;4174081;28;20689;-60
2021/10/15 05:22:22;;;;;;;121.43;24.83;;;1.10;99.90;;;;;;4172707;28;20289;-56
2021/10/15 05:24:23;;;;;;;105.03;23.47;;;1.10;99.90;;;;;;4173566;28;20402;-58
2021/10/15 05:26:24;;;;;;;94.10;24.03;;;1.20;99.90;;;;;;4172919;28;20392;-59
2021/10/15 05:28:25;;;;;;;93.67;24.40;;;1.20;99.90;;;;;;4173095;28;20343;-59
2021/10/15 05:30:27;;;;;;;118.63;24.90;;;1.20;99.90;;;;;;4172169;28;20308;-59
2021/10/15 05:32:28;;;;;;;125.33;25.97;;;1.20;99.90;;;;;;4173465;28;20330;-59
2021/10/15 05:34:29;;;;;;;128.53;27.50;;;1.30;99.90;;;;;;4172081;28;20270;-56
2021/10/15 05:36:30;;;;;;;133.00;25.80;;;1.20;99.90;;;;;;4173687;28;20336;-59
2021/10/15 05:38:31;;;;;;;94.93;23.97;;;1.20;99.90;;;;;;4173288;28;20262;-58
2021/10/15 05:40:32;;;;;;;135.17;23.97;;;1.20;99.90;;;;;;4173067;28;20821;-58
2021/10/15 05:42:33;;;;;;;110.37;22.67;;;1.20;99.90;;;;;;4170884;28;20379;-59
2021/10/15 05:44:34;;;;;;;66.87;20.63;;;1.20;99.90;;;;;;4173176;28;20355;-58
2021/10/15 05:46:36;;;;;;;61.83;21.93;;;1.30;99.90;;;;;;4173463;28;20328;-61
2021/10/15 05:48:37;;;;;;;76.07;21.87;;;1.30;99.90;;;;;;4172663;28;20351;-55
2021/10/15 05:50:38;;;;;;;75.50;21.27;;;1.40;99.90;;;;;;4173880;28;20266;-59
2021/10/15 05:52:48;;;;;;;58.43;20.50;;;1.40;99.90;;;;;;4173317;28;20300;-59
2021/10/15 05:59:20;;;;;;;70.22;20.10;;;1.40;99.90;;;;;;4122518;28;20284;-59
2021/10/15 06:01:25;;;;;;;80.10;21.63;;;1.40;99.90;;;;;;4169551;28;20044;-62
2021/10/15 06:03:27;;;;;;;111.30;24.47;;;1.50;99.90;;;;;;4174045;28;20874;-58
2021/10/15 06:14:29;;;;;;;73.67;23.43;;;1.50;99.90;;;;;;4172820;28;20344;-59
2021/10/15 06:16:32;;;;;;;69.20;21.73;;;1.50;99.90;;;;;;4173702;28;20331;-60
2021/10/15 06:18:38;;;;;;;87.00;23.70;;;1.50;99.90;;;;;;4172674;28;20336;-55
2021/10/15 06:20:39;;;;;;;60.57;21.60;;;1.60;99.90;;;;;;4173443;28;20371;-57
2021/10/15 06:22:41;;;;;;;67.47;22.17;;;1.70;99.90;;;;;;4172471;28;20347;-57
2021/10/15 06:24:42;;;;;;;66.93;21.83;;;1.80;99.90;;;;;;4173835;28;20669;-58
2021/10/15 06:26:44;;;;;;;51.40;20.53;;;1.80;99.90;;;;;;4172454;28;20270;-61
2021/10/15 06:28:46;;;;;;;86.33;20.50;;;1.90;99.90;;;;;;4171430;28;20891;-57
2021/10/15 06:30:47;;;;;;;74.67;19.07;;;1.90;99.90;;;;;;4172177;28;20270;-61
2021/10/15 06:32:48;;;;;;;59.37;18.80;;;1.90;99.90;;;;;;4173459;28;20266;-60
2021/10/15 06:34:50;;;;;;;61.33;19.37;;;1.90;99.90;;;;;;4171816;28;20739;-60
2021/10/15 06:36:51;;;;;;;61.73;19.17;;;1.90;99.90;;;;;;4173169;28;20320;-58
2021/10/15 06:38:52;;;;;;;58.13;18.73;;;2.00;99.90;;;;;;4171668;28;20270;-55
2021/10/15 06:40:53;;;;;;;52.20;18.53;;;2.00;99.90;;;;;;4172682;28;20348;-59
2021/10/15 06:42:54;;;;;;;47.53;17.60;;;2.00;99.90;;;;;;4172817;28;20645;-57
2021/10/15 06:44:55;;;;;;;55.03;17.47;;;2.10;99.90;;;;;;4172342;28;20273;-56
2021/10/15 06:46:56;;;;;;;76.17;17.53;;;2.10;99.90;;;;;;4172534;28;20286;-55
2021/10/15 06:48:58;;;;;;;39.67;16.57;;;2.00;99.90;;;;;;4171717;28;20710;-58
2021/10/15 06:50:59;;;;;;;61.57;17.73;;;2.10;99.90;;;;;;4173409;28;20363;-58
2021/10/15 06:53:00;;;;;;;41.27;17.37;;;2.10;99.90;;;;;;4172307;28;20371;-60
2021/10/15 06:55:01;;;;;;;36.97;16.37;;;2.10;99.90;;;;;;4176211;28;20297;-57
2021/10/15 06:57:03;;;;;;;42.63;16.47;;;2.10;99.90;;;;;;4174114;28;20282;-58
2021/10/15 06:59:04;;;;;;;40.47;17.37;;;2.10;99.90;;;;;;4175932;28;20351;-58
2021/10/15 07:01:06;;;;;;;36.30;16.50;;;2.10;99.90;;;;;;4174201;28;20270;-59
2021/10/15 07:03:14;;;;;;;47.77;17.03;;;2.10;99.90;;;;;;4176623;28;20603;-61
2021/10/15 07:05:15;;;;;;;49.70;18.47;;;2.10;99.90;;;;;;4174847;28;20319;-59
2021/10/15 07:07:16;;;;;;;37.97;16.37;;;2.20;99.90;;;;;;4176787;28;20258;-59
2021/10/15 07:09:17;;;;;;;60.73;17.53;;;2.20;99.90;;;;;;4175414;28;20815;-58
2021/10/15 07:11:19;;;;;;;75.50;17.00;;;2.20;99.90;;;;;;4175848;28;20320;-60
2021/10/15 07:13:20;;;;;;;47.20;17.73;;;2.20;99.90;;;;;;4176247;28;21569;-61
2021/10/15 07:15:21;;;;;;;78.97;17.43;;;2.20;99.90;;;;;;4175590;28;20262;-58
2021/10/15 07:17:22;;;;;;;59.57;19.87;;;2.10;99.90;;;;;;4175646;28;20315;-57
2021/10/15 07:19:23;;;;;;;52.63;18.77;;;2.10;99.90;;;;;;4174901;28;20392;-59
2021/10/15 07:21:24;;;;;;;96.40;18.07;;;2.20;99.90;;;;;;4175162;28;20262;-57
2021/10/15 07:23:25;;;;;;;45.50;19.23;;;2.20;99.90;;;;;;4174215;28;20258;-59
2021/10/15 07:25:26;;;;;;;47.03;19.63;;;2.20;99.90;;;;;;4175197;28;20324;-58
2021/10/15 07:27:28;;;;;;;53.93;19.90;;;2.10;99.90;;;;;;4174319;28;20347;-56
2021/10/15 07:29:29;;;;;;;57.20;19.20;;;2.20;99.90;;;;;;4175104;28;20316;-61
2021/10/15 07:31:30;;;;;;;56.83;21.63;;;2.30;99.90;;;;;;4173129;28;20721;-58
2021/10/15 07:33:32;;;;;;;66.10;22.97;;;2.20;99.90;;;;;;4175006;28;20324;-58
2021/10/15 07:35:33;;;;;;;74.93;21.70;;;2.30;99.90;;;;;;4173563;28;20266;-59
2021/10/15 07:37:36;;;;;;;71.40;22.57;;;2.30;99.90;;;;;;4174873;28;20270;-57
2021/10/15 07:39:37;;;;;;;80.33;22.47;;;2.30;99.90;;;;;;4173610;28;20258;-59
2021/10/15 07:41:45;;;;;;;74.13;22.43;;;2.40;99.90;;;;;;4174550;28;20331;-59
2021/10/15 07:43:50;;;;;;;120.90;25.90;;;2.30;99.90;;;;;;4173943;28;20265;-58
2021/10/15 07:45:51;;;;;;;135.00;24.43;;;2.40;99.90;;;;;;4173988;28;20689;-55
2021/10/15 07:47:52;;;;;;;103.57;24.77;;;2.30;99.90;;;;;;4174288;28;20298;-54
2021/10/15 07:49:54;;;;;;;99.90;25.07;;;2.30;99.90;;;;;;4173972;28;20798;-55
2021/10/15 07:51:55;;;;;;;109.93;26.93;;;2.30;99.90;;;;;;4175027;28;20266;-54
2021/10/15 07:53:56;;;;;;;106.77;31.00;;;2.40;99.90;;;;;;4174108;28;20717;-58
2021/10/15 07:55:57;;;;;;;122.17;28.03;;;2.40;99.90;;;;;;4174538;28;20246;-59
2021/10/15 07:57:58;;;;;;;61.00;25.17;;;2.40;99.90;;;;;;4173141;28;21209;-60
2021/10/15 07:59:59;;;;;;;138.13;28.83;;;2.40;99.90;;;;;;4174898;28;20312;-57
2021/10/15 08:02:00;;;;;;;80.53;26.03;;;2.40;99.90;;;;;;4173883;28;20274;-60
2021/10/15 08:04:03;;;;;;;83.37;28.33;;;2.40;99.90;;;;;;4173684;28;20262;-56
2021/10/15 08:06:04;;;;;;;107.63;28.03;;;2.40;99.90;;;;;;4173527;28;20316;-57
2021/10/15 08:08:05;;;;;;;108.53;27.67;;;2.50;99.90;;;;;;4174744;28;20290;-58
2021/10/15 08:10:07;;;;;;;92.37;28.20;;;2.60;99.90;;;;;;4173355;28;20262;-59
2021/10/15 08:12:08;;;;;;;106.53;30.07;;;2.60;99.90;;;;;;4174297;28;20258;-58
2021/10/15 08:14:10;;;;;;;106.30;31.53;;;2.60;99.90;;;;;;4173616;28;20250;-59
2021/10/15 08:16:12;;;;;;;84.07;28.77;;;2.60;99.90;;;;;;4173734;28;20274;-61
2021/10/15 08:18:13;;;;;;;91.63;31.70;;;2.70;99.90;;;;;;4173253;28;20254;-60
2021/10/15 08:20:16;;;;;;;96.63;32.03;;;2.80;99.90;;;;;;4132839;28;1187395;-58
2021/10/15 08:22:17;;;;;;;90.20;31.27;;;2.90;99.90;;;;;;4175621;28;20134;-56
2021/10/15 08:24:18;;;;;;;93.90;30.77;;;3.00;99.90;;;;;;4173623;28;20339;-60
2021/10/15 08:26:20;;;;;;;99.93;32.00;;;3.00;99.90;;;;;;4175863;28;20274;-58
2021/10/15 08:28:21;;;;;;;99.60;31.13;;;3.00;99.90;;;;;;4174529;28;20339;-53
2021/10/15 08:30:23;;;;;;;126.67;30.80;;;3.00;99.90;;;;;;4175358;28;20277;-60
2021/10/15 08:32:26;;;;;;;78.93;28.77;;;3.00;99.90;;;;;;4173914;28;21044;-62
2021/10/15 08:34:27;;;;;;;92.47;30.93;;;3.00;99.90;;;;;;4175135;28;20624;-57
2021/10/15 08:36:28;;;;;;;73.30;27.57;;;3.10;99.90;;;;;;4173655;28;20312;-59
2021/10/15 08:38:29;;;;;;;80.27;26.30;;;3.20;99.90;;;;;;4174549;28;20347;-58
2021/10/15 08:40:30;;;;;;;75.83;26.60;;;3.30;99.90;;;;;;4173718;28;20278;-58
2021/10/15 08:42:31;;;;;;;71.47;25.53;;;3.30;99.90;;;;;;4174854;28;20301;-62
2021/10/15 08:44:45;;;;;;;59.00;22.87;;;3.30;99.90;;;;;;4173725;28;20275;-57
2021/10/15 08:46:46;;;;;;;72.13;23.50;;;3.40;99.90;;;;;;4174851;28;20278;-59
2021/10/15 08:48:48;;;;;;;56.27;20.90;;;3.40;99.90;;;;;;4173740;28;20700;-57
2021/10/15 08:50:49;;;;;;;60.70;22.20;;;3.50;99.90;;;;;;4174186;28;20250;-60
2021/10/15 08:52:51;;;;;;;51.20;21.53;;;3.50;99.90;;;;;;4174474;28;20262;-60
2021/10/15 08:54:53;;;;;;;47.53;19.47;;;3.70;99.90;;;;;;4173714;28;20262;-58
2021/10/15 08:56:57;;;;;;;50.80;19.80;;;3.80;99.90;;;;;;4174023;28;20266;-58
2021/10/15 08:59:01;;;;;;;41.90;17.90;;;3.90;99.90;;;;;;4173286;28;20320;-57
2021/10/15 09:01:02;;;;;;;43.20;18.93;;;3.80;99.90;;;;;;4173438;28;20674;-57
2021/10/15 09:03:13;;;;;;;39.17;17.20;;;3.80;99.90;;;;;;4172936;28;20734;-58
2021/10/15 09:05:15;;;;;;;34.30;17.00;;;4.00;99.90;;;;;;4173973;28;20266;-57
2021/10/15 09:07:20;;;;;;;35.07;16.77;;;4.20;99.90;;;;;;4173240;28;20810;-61
2021/10/15 09:09:28;;;;;;;32.23;15.67;;;4.20;99.90;;;;;;4174780;28;20417;-57
2021/10/15 09:11:39;;;;;;;39.07;17.43;;;4.30;99.90;;;;;;4173482;28;20278;-60
2021/10/15 09:13:40;;;;;;;34.90;17.10;;;4.50;99.90;;;;;;4174206;28;20335;-59
2021/10/15 09:15:41;;;;;;;30.33;15.30;;;4.50;99.90;;;;;;4172447;28;20270;-62
2021/10/15 09:17:50;;;;;;;27.90;14.70;;;4.50;99.90;;;;;;4174770;28;20673;-58
2021/10/15 09:19:55;;;;;;;30.50;15.87;;;4.60;99.90;;;;;;4172406;28;20336;-58
2021/10/15 09:22:19;;;;;;;30.63;14.87;;;4.60;99.90;;;;;;4174626;28;20631;-60
2021/10/15 09:24:36;;;;;;;28.43;14.70;;;4.70;99.90;;;;;;4171170;28;20352;-56
2021/10/15 09:26:37;;;;;;;28.87;13.97;;;4.70;99.90;;;;;;4172516;28;20278;-60
2021/10/15 09:28:44;;;;;;;34.93;15.13;;;4.80;99.90;;;;;;4172520;28;20302;-63
2021/10/15 09:30:47;;;;;;;27.63;13.57;;;4.90;99.90;;;;;;4173760;28;20673;-60
2021/10/15 09:32:51;;;;;;;29.07;13.77;;;5.10;99.90;;;;;;4173100;28;20750;-57
2021/10/15 09:34:53;;;;;;;22.80;13.40;;;5.20;99.90;;;;;;4173069;28;20286;-60
2021/10/15 09:36:54;;;;;;;26.63;13.87;;;5.20;99.90;;;;;;4172393;28;20275;-59
2021/10/15 09:38:55;;;;;;;27.37;14.17;;;5.30;99.90;;;;;;4173755;28;20286;-57
2021/10/15 09:40:56;;;;;;;20.23;12.83;;;5.40;99.90;;;;;;4172289;28;20282;-60
2021/10/15 09:43:00;;;;;;;28.00;15.73;;;5.40;99.90;;;;;;4173531;28;20344;-59
2021/10/15 09:45:17;;;;;;;29.50;15.93;;;5.40;99.90;;;;;;4172511;28;20258;-60
2021/10/15 09:47:24;;;;;;;28.93;14.97;;;5.50;99.90;;;;;;4173118;28;20604;-60
2021/10/15 09:49:46;;;;;;;36.00;15.97;;;5.60;99.90;;;;;;4172468;28;20293;-58
2021/10/15 09:52:00;;;;;;;35.50;17.40;;;5.80;99.90;;;;;;4173854;28;20254;-55
2021/10/15 09:54:14;;;;;;;39.27;20.23;;;5.80;99.90;;;;;;4172941;28;20258;-58
2021/10/15 09:56:42;;;;;;;39.07;19.77;;;5.80;99.90;;;;;;4174197;28;20270;-63
2021/10/15 09:58:53;;;;;;;43.37;22.10;;;5.80;99.90;;;;;;4171881;28;20312;-58
2021/10/15 10:00:54;;;;;;;;;;;5.90;99.90;;;;;;4174300;28;20730;-59
2021/10/15 10:02:55;;;;;;;42.87;20.47;;;5.90;99.90;;;;;;4172167;28;20008;-58
2021/10/15 10:04:56;;;;;;;47.83;21.70;;;5.90;99.90;;;;;;4172663;28;20033;-58
2021/10/15 10:06:59;;;;;;;41.60;20.37;;;5.90;99.90;;;;;;4172334;28;20391;-60
2021/10/15 10:09:01;;;;;;;30.07;15.90;;;6.00;99.90;;;;;;4173593;28;20780;-57
2021/10/15 10:11:02;;;;;;;30.40;16.87;;;6.00;99.90;;;;;;4172517;28;20316;-58
2021/10/15 10:13:05;;;;;;;29.17;15.47;;;6.00;99.90;;;;;;4172778;28;20336;-57
2021/10/15 10:15:09;;;;;;;33.53;15.87;;;6.00;99.90;;;;;;4172701;28;20270;-57
2021/10/15 10:17:12;;;;;;;30.87;16.20;;;6.00;99.90;;;;;;4172141;28;20328;-63
2021/10/15 10:19:15;;;;;;;37.20;18.90;;;6.10;99.90;;;;;;4171153;28;20323;-58
2021/10/15 10:21:23;;;;;;;38.67;19.90;;;6.10;99.90;;;;;;4171802;28;20037;-57
2021/10/15 10:23:37;;;;;;;36.77;17.33;;;6.20;99.90;;;;;;4173419;28;20817;-60
2021/10/15 10:25:38;;;;;;;35.33;16.47;;;6.20;99.90;;;;;;4172464;28;20083;-60
2021/10/15 10:27:43;;;;;;;34.53;16.87;;;6.20;99.90;;;;;;4173133;28;20262;-52
2021/10/15 10:29:52;;;;;;;29.70;14.40;;;6.20;99.90;;;;;;4171689;28;20041;-59
2021/10/15 10:32:13;;;;;;;30.80;15.87;;;6.20;99.90;;;;;;4172678;28;20143;-57
2021/10/15 10:34:23;;;;;;;31.60;16.10;;;6.30;99.90;;;;;;4172552;28;21124;-59
2021/10/15 10:36:27;;;;;;;32.28;16.02;;;6.20;99.90;;;;;;4172396;28;20033;-57
2021/10/15 10:38:30;;;;;;;24.37;15.10;;;6.30;99.90;;;;;;4172048;28;20059;-59
2021/10/15 10:40:32;;;;;;;27.17;15.10;;;6.30;99.90;;;;;;4173222;28;20033;-59